Natural Bridge, Kentucky
Current Conditions -  °F | °C
As of 2:15 PM on Friday 28 Nov 2014 (Local Time) from KIOB Reporting Station
Clear Clear  
Wind Chill: 26°   Ceiling: Unl
Heat Index: 34°   Visibility: 10mi
Dew Point: 19°   Wind: 10mph
Humidity: 56%   Direction: 210°SSW
Pressure: 30.28"   Gusts: NA
Location:  37.7973°N, 83.6839°W
Report Text: KIOB 281915Z AUTO 21009KT 10SM CLR 01/M07 A3028 RMK AO2
Loading
Personal Weather Stations






























Interactive Weather Map New forecast layout! Learn more

10-Day Weather Forecast

Advertisements
Track Severe Weather on mobile